Time;durP1;ratioP1;P1;durP2;ratioP2;P2;SDS_P1;SDS_P2;PMS_P1;PMS_P2;Temp;Humidity;BMP_temperature;BMP_pressure;BME280_temperature;BME280_humidity;BME280_pressure;Samples;Min_cycle;Max_cycle;Signal;HPM_P1;HPM_P2
2021/12/30 00:01:36;;;;;;;11.00;7.37;;;5.40;99.90;;;;;;5043504;28;20214;-79
2021/12/30 00:04:03;;;;;;;11.03;7.23;;;5.40;99.90;;;;;;5043527;28;20242;-79
2021/12/30 00:06:30;;;;;;;11.07;7.33;;;5.40;99.90;;;;;;5043920;28;20182;-79
2021/12/30 00:08:56;;;;;;;9.80;6.70;;;5.50;99.90;;;;;;5044675;28;20224;-80
2021/12/30 00:11:22;;;;;;;11.57;7.43;;;5.50;99.90;;;;;;5044867;28;20235;-78
2021/12/30 00:13:48;;;;;;;11.03;6.87;;;5.60;99.90;;;;;;5043324;28;20695;-78
2021/12/30 00:16:16;;;;;;;9.10;6.07;;;5.60;99.90;;;;;;5027322;28;20186;-79
2021/12/30 00:18:42;;;;;;;10.57;6.67;;;5.60;99.90;;;;;;5027616;28;20185;-79
2021/12/30 00:21:09;;;;;;;10.87;6.93;;;5.60;99.90;;;;;;5043562;28;20182;-79
2021/12/30 00:23:35;;;;;;;9.67;6.50;;;5.70;99.90;;;;;;5044893;28;20687;-80
2021/12/30 00:26:02;;;;;;;8.27;5.77;;;5.70;99.90;;;;;;5045077;28;20190;-80
2021/12/30 00:28:28;;;;;;;9.60;5.37;;;5.70;99.90;;;;;;5047485;28;20193;-80
2021/12/30 00:30:54;;;;;;;7.67;4.73;;;5.70;99.90;;;;;;5048258;28;20189;-80
2021/12/30 00:33:20;;;;;;;9.53;5.40;;;5.80;99.90;;;;;;5030922;28;20210;-79
2021/12/30 00:35:45;;;;;;;7.93;5.13;;;5.90;99.90;;;;;;5047221;28;20186;-80
2021/12/30 00:38:11;;;;;;;4.73;3.40;;;5.90;99.90;;;;;;5048571;28;20189;-80
2021/12/30 00:40:38;;;;;;;4.70;3.37;;;6.20;99.90;;;;;;5048221;28;20186;-79
2021/12/30 00:43:04;;;;;;;3.70;2.97;;;6.50;99.90;;;;;;5030749;28;20178;-80
2021/12/30 00:45:32;;;;;;;5.67;3.90;;;6.80;99.90;;;;;;5048442;28;20190;-80
2021/12/30 00:47:58;;;;;;;5.97;3.90;;;7.00;99.90;;;;;;5049012;28;20182;-82
2021/12/30 00:50:25;;;;;;;5.43;4.10;;;7.30;99.90;;;;;;5048988;28;20236;-78
2021/12/30 00:52:50;;;;;;;5.33;4.17;;;7.40;99.90;;;;;;5031248;28;20206;-81
2021/12/30 00:55:16;;;;;;;7.50;4.57;;;7.60;99.90;;;;;;5031304;28;20198;-81
2021/12/30 00:57:42;;;;;;;7.00;4.47;;;7.70;99.90;;;;;;5031684;28;20198;-79
2021/12/30 01:00:13;;;;;;;6.57;4.83;;;7.70;99.90;;;;;;5048753;28;20182;-80
2021/12/30 01:02:39;;;;;;;6.53;4.70;;;7.70;99.90;;;;;;5031130;28;20183;-79
2021/12/30 01:05:05;;;;;;;6.87;5.30;;;7.70;99.90;;;;;;5031158;28;20202;-79
2021/12/30 01:07:31;;;;;;;7.20;5.30;;;7.70;99.90;;;;;;5048445;28;20197;-79
2021/12/30 01:09:57;;;;;;;10.03;5.93;;;7.70;99.90;;;;;;5030655;28;20179;-79
2021/12/30 01:12:23;;;;;;;10.23;5.50;;;7.70;99.90;;;;;;5048269;28;20684;-81
2021/12/30 01:14:50;;;;;;;7.20;5.17;;;7.70;99.90;;;;;;5030414;28;20213;-84
2021/12/30 01:17:28;;;;;;;8.67;5.63;;;7.60;99.90;;;;;;5048625;28;20178;-79
2021/12/30 01:19:53;;;;;;;8.27;5.30;;;7.60;99.90;;;;;;5048137;28;20166;-79
2021/12/30 01:22:23;;;;;;;9.40;5.43;;;7.80;99.90;;;;;;5030964;28;20241;-82
2021/12/30 01:24:50;;;;;;;10.47;5.77;;;7.70;99.90;;;;;;5049798;28;20230;-81
2021/12/30 01:27:16;;;;;;;9.93;6.30;;;7.60;99.90;;;;;;5031033;28;20554;-79
2021/12/30 01:29:42;;;;;;;10.50;6.47;;;7.60;99.90;;;;;;5048083;28;20269;-80
2021/12/30 01:32:09;;;;;;;8.40;5.73;;;7.60;99.90;;;;;;5048184;28;20763;-79
2021/12/30 01:34:35;;;;;;;9.30;5.87;;;7.60;99.90;;;;;;5030185;28;20272;-79
2021/12/30 01:37:03;;;;;;;10.53;6.23;;;7.60;99.90;;;;;;5030645;28;20193;-81
2021/12/30 01:39:29;;;;;;;10.40;6.57;;;7.60;99.90;;;;;;5047319;28;20674;-81
2021/12/30 01:41:55;;;;;;;10.10;6.60;;;7.60;99.90;;;;;;5047688;28;20273;-81
2021/12/30 01:44:22;;;;;;;13.73;6.87;;;7.60;99.90;;;;;;5049068;28;20205;-83
2021/12/30 01:46:49;;;;;;;10.33;5.63;;;7.60;99.90;;;;;;5030059;28;20186;-79
2021/12/30 01:49:15;;;;;;;10.57;6.20;;;7.60;99.90;;;;;;5030416;28;20269;-80
2021/12/30 01:51:43;;;;;;;13.13;6.80;;;7.50;99.90;;;;;;5047529;28;20201;-79
2021/12/30 01:54:09;;;;;;;11.40;6.40;;;7.50;99.90;;;;;;5030496;28;20224;-79
2021/12/30 01:56:35;;;;;;;9.50;6.50;;;7.50;99.90;;;;;;5030341;28;20190;-79
2021/12/30 01:59:02;;;;;;;10.10;6.67;;;7.50;99.90;;;;;;5030089;28;20221;-82
2021/12/30 02:01:29;;;;;;;14.60;7.07;;;7.50;99.90;;;;;;5047415;28;20213;-80
2021/12/30 02:03:56;;;;;;;9.47;6.33;;;7.50;99.90;;;;;;5047687;28;20198;-81
2021/12/30 02:06:22;;;;;;;10.77;7.03;;;7.40;99.90;;;;;;5046216;28;20192;-81
2021/12/30 02:08:48;;;;;;;10.13;6.20;;;7.40;99.90;;;;;;5046893;28;20210;-82
2021/12/30 02:11:14;;;;;;;10.90;7.03;;;7.40;99.90;;;;;;5047334;28;20269;-79
2021/12/30 02:13:39;;;;;;;10.37;6.87;;;7.30;99.90;;;;;;5029603;28;20297;-79
2021/12/30 02:16:05;;;;;;;10.93;6.97;;;7.30;99.90;;;;;;5047260;28;20190;-83
2021/12/30 02:18:31;;;;;;;11.77;7.20;;;7.40;99.90;;;;;;5047525;28;20193;-79
2021/12/30 02:20:59;;;;;;;12.93;7.10;;;7.40;99.90;;;;;;5046742;28;20217;-79
2021/12/30 02:23:32;;;;;;;11.20;6.53;;;7.40;99.90;;;;;;5046479;28;20202;-81
2021/12/30 02:26:04;;;;;;;10.23;6.60;;;7.40;99.90;;;;;;5029219;28;20376;-80
2021/12/30 02:28:32;;;;;;;13.17;7.03;;;7.40;99.90;;;;;;5046529;28;20602;-81
2021/12/30 02:31:00;;;;;;;10.20;7.00;;;7.30;99.90;;;;;;5028922;28;20198;-79
2021/12/30 02:33:26;;;;;;;14.13;7.00;;;7.30;99.90;;;;;;5029450;28;20325;-83
2021/12/30 02:35:53;;;;;;;15.73;7.57;;;7.40;99.90;;;;;;5029563;28;20257;-79
2021/12/30 02:38:20;;;;;;;12.97;7.13;;;7.30;99.90;;;;;;5046336;28;20597;-79
2021/12/30 02:40:51;;;;;;;18.90;8.70;;;7.30;99.90;;;;;;5045253;28;20690;-82
2021/12/30 02:43:26;;;;;;;17.33;8.83;;;7.30;99.90;;;;;;5046230;28;20223;-80
2021/12/30 02:45:53;;;;;;;16.80;8.97;;;7.30;99.90;;;;;;5029195;28;20554;-79
2021/12/30 02:48:25;;;;;;;18.07;9.73;;;7.40;99.90;;;;;;5028864;28;20546;-79
2021/12/30 02:50:54;;;;;;;18.17;9.13;;;7.50;99.90;;;;;;5028270;28;20273;-81
2021/12/30 02:53:20;;;;;;;19.83;9.40;;;7.50;99.90;;;;;;5045684;28;20700;-80
2021/12/30 02:55:46;;;;;;;14.93;8.73;;;7.50;99.90;;;;;;5046603;28;20221;-81
2021/12/30 02:58:12;;;;;;;18.63;9.20;;;7.50;99.90;;;;;;5046681;28;20174;-79
2021/12/30 03:00:40;;;;;;;16.17;9.20;;;7.60;99.90;;;;;;5028279;28;20182;-80
2021/12/30 03:03:06;;;;;;;22.87;9.00;;;7.60;99.90;;;;;;5028311;28;20296;-82
2021/12/30 03:05:32;;;;;;;18.63;8.90;;;7.70;99.90;;;;;;5028604;28;20278;-79
2021/12/30 03:07:57;;;;;;;21.10;9.80;;;7.80;99.90;;;;;;5028730;28;20656;-82
2021/12/30 03:10:25;;;;;;;16.73;9.30;;;7.90;99.90;;;;;;5046190;28;20250;-81
2021/12/30 03:12:56;;;;;;;15.73;9.10;;;7.90;99.90;;;;;;5045482;28;20205;-80
2021/12/30 03:15:23;;;;;;;15.10;8.80;;;7.90;99.90;;;;;;5028223;28;20628;-79
2021/12/30 03:17:48;;;;;;;19.63;9.23;;;7.90;99.90;;;;;;5028296;28;20221;-79
2021/12/30 03:20:14;;;;;;;19.83;9.27;;;7.90;99.90;;;;;;5046113;28;20209;-79
2021/12/30 03:22:41;;;;;;;17.27;8.87;;;7.90;99.90;;;;;;5045695;28;20190;-80
2021/12/30 03:25:08;;;;;;;17.17;8.37;;;7.90;99.90;;;;;;5044160;28;20206;-79
2021/12/30 03:27:34;;;;;;;15.77;8.80;;;7.80;99.90;;;;;;5028507;28;20190;-79
2021/12/30 03:30:00;;;;;;;15.93;7.93;;;7.90;99.90;;;;;;5045504;28;20737;-79
2021/12/30 03:32:25;;;;;;;18.53;8.70;;;8.00;99.90;;;;;;5045908;28;20353;-79
2021/12/30 03:34:51;;;;;;;19.30;8.87;;;7.90;99.90;;;;;;5027828;28;20202;-79
2021/12/30 03:37:16;;;;;;;13.20;8.23;;;7.90;99.90;;;;;;5028259;28;20269;-81
2021/12/30 03:39:42;;;;;;;16.83;8.87;;;7.90;99.90;;;;;;5027687;28;20671;-82
2021/12/30 03:42:08;;;;;;;22.93;8.83;;;8.00;99.90;;;;;;5028651;28;20190;-79
2021/12/30 03:44:33;;;;;;;17.10;8.30;;;8.00;99.90;;;;;;5028001;28;21147;-80
2021/12/30 03:46:59;;;;;;;25.37;8.47;;;8.10;99.90;;;;;;5028673;28;20182;-79
2021/12/30 03:49:25;;;;;;;28.33;9.63;;;8.10;99.90;;;;;;5028152;28;20588;-81
2021/12/30 03:51:53;;;;;;;18.17;9.10;;;8.10;99.90;;;;;;5027837;28;20206;-79
2021/12/30 03:54:19;;;;;;;27.83;9.93;;;8.20;99.90;;;;;;5046473;28;20202;-80
2021/12/30 03:56:45;;;;;;;26.57;9.63;;;8.30;99.90;;;;;;5046229;28;20170;-81
2021/12/30 03:59:11;;;;;;;18.53;8.70;;;8.40;99.90;;;;;;5046014;28;20174;-81
2021/12/30 04:01:37;;;;;;;22.83;8.33;;;8.40;99.90;;;;;;5027547;28;20551;-80
2021/12/30 04:04:03;;;;;;;17.73;7.83;;;8.40;99.90;;;;;;5032784;28;20209;-80
2021/12/30 04:06:29;;;;;;;20.70;7.10;;;8.50;99.90;;;;;;5032224;28;20190;-80
2021/12/30 04:08:56;;;;;;;19.87;7.30;;;8.50;99.90;;;;;;5032445;28;20237;-81
2021/12/30 04:11:28;;;;;;;19.93;6.87;;;8.50;99.90;;;;;;5031491;28;20178;-79
2021/12/30 04:13:54;;;;;;;15.93;7.13;;;8.60;99.90;;;;;;5032644;28;20716;-80
2021/12/30 04:16:20;;;;;;;17.73;6.17;;;8.50;99.90;;;;;;5035085;28;20182;-80
2021/12/30 04:18:48;;;;;;;19.97;6.93;;;8.50;99.90;;;;;;5051055;28;20278;-82
2021/12/30 04:21:16;;;;;;;18.00;5.87;;;8.50;99.90;;;;;;5033511;28;20244;-80
2021/12/30 04:23:43;;;;;;;16.73;6.40;;;8.40;99.90;;;;;;5052011;28;20235;-80
2021/12/30 04:26:08;;;;;;;19.53;5.83;;;8.30;99.90;;;;;;5052288;28;20688;-80
2021/12/30 04:28:34;;;;;;;18.03;6.50;;;8.30;99.90;;;;;;5052475;28;20281;-80
2021/12/30 04:30:59;;;;;;;16.13;7.27;;;8.40;99.90;;;;;;5033838;28;20198;-82
2021/12/30 04:33:25;;;;;;;20.03;7.20;;;8.30;99.90;;;;;;5034441;28;20245;-78
2021/12/30 04:35:56;;;;;;;17.40;7.47;;;8.40;99.90;;;;;;5034142;28;20189;-80
2021/12/30 04:38:25;;;;;;;28.93;8.63;;;8.30;99.90;;;;;;5051804;28;20644;-82
2021/12/30 04:40:51;;;;;;;16.60;6.83;;;8.40;99.90;;;;;;5033942;28;20698;-79
2021/12/30 04:43:17;;;;;;;16.73;6.87;;;8.40;99.90;;;;;;5051082;28;20194;-82
2021/12/30 04:45:44;;;;;;;20.67;6.67;;;8.30;99.90;;;;;;5050409;28;20205;-79
2021/12/30 04:48:09;;;;;;;16.57;6.47;;;8.40;99.90;;;;;;5049915;28;20188;-80
2021/12/30 04:50:35;;;;;;;23.73;6.37;;;8.20;99.90;;;;;;5048972;28;20182;-80
2021/12/30 04:53:00;;;;;;;19.50;6.77;;;8.20;99.90;;;;;;5032016;28;20267;-81
2021/12/30 04:55:26;;;;;;;24.47;7.53;;;8.20;99.90;;;;;;5050432;28;20178;-80
2021/12/30 04:57:52;;;;;;;15.57;6.27;;;8.40;99.90;;;;;;5033008;28;20531;-82
2021/12/30 05:00:17;;;;;;;18.07;7.17;;;8.40;99.90;;;;;;5032936;28;20209;-80
2021/12/30 05:03:06;;;;;;;17.53;6.03;;;8.40;99.90;;;;;;5032263;28;20190;-81
2021/12/30 05:05:29;;;;;;;21.13;6.97;;;8.30;99.90;;;;;;5049257;28;20234;-82
2021/12/30 05:07:55;;;;;;;17.90;6.60;;;8.20;99.90;;;;;;5031751;28;20182;-79
2021/12/30 05:10:21;;;;;;;15.77;6.50;;;8.20;99.90;;;;;;5030690;28;20200;-80
2021/12/30 05:12:46;;;;;;;16.20;6.03;;;8.20;99.90;;;;;;5047576;28;20202;-78
2021/12/30 05:15:12;;;;;;;19.30;5.33;;;8.10;99.90;;;;;;5028600;28;20206;-79
2021/12/30 05:17:40;;;;;;;16.60;6.47;;;8.10;99.90;;;;;;5029872;28;20970;-80
2021/12/30 05:20:06;;;;;;;11.43;5.07;;;8.10;99.90;;;;;;5047635;28;20174;-81
2021/12/30 05:22:32;;;;;;;18.27;5.80;;;8.00;99.90;;;;;;5047355;28;20197;-79
2021/12/30 05:24:57;;;;;;;17.60;5.27;;;8.00;99.90;;;;;;5031864;28;20206;-82
2021/12/30 05:27:23;;;;;;;17.00;5.07;;;8.00;99.90;;;;;;5031878;28;20199;-80
2021/12/30 05:29:48;;;;;;;23.70;5.27;;;8.10;99.90;;;;;;5032372;28;20194;-79
2021/12/30 05:32:14;;;;;;;18.10;5.10;;;8.00;99.90;;;;;;5032137;28;20274;-80
2021/12/30 05:34:39;;;;;;;16.07;5.07;;;8.00;99.90;;;;;;5032708;28;20201;-81
2021/12/30 05:37:05;;;;;;;16.90;5.23;;;8.00;99.90;;;;;;5032426;28;20239;-80
2021/12/30 05:39:31;;;;;;;17.00;4.97;;;8.00;99.90;;;;;;5049380;28;20194;-79
2021/12/30 05:41:57;;;;;;;15.97;4.87;;;7.90;99.90;;;;;;5049587;28;20178;-82
2021/12/30 05:44:22;;;;;;;17.47;4.73;;;7.80;99.90;;;;;;5047969;28;20216;-80
2021/12/30 05:46:48;;;;;;;12.87;4.70;;;7.90;99.90;;;;;;5049594;28;20229;-81
2021/12/30 05:49:14;;;;;;;18.67;5.43;;;7.80;99.90;;;;;;5049292;28;20193;-80
2021/12/30 05:51:41;;;;;;;11.57;4.13;;;7.80;99.90;;;;;;5047643;28;20200;-80
2021/12/30 05:54:07;;;;;;;15.73;4.17;;;7.80;99.90;;;;;;5048723;28;20202;-80
2021/12/30 05:56:33;;;;;;;16.17;4.70;;;7.80;99.90;;;;;;5031371;28;20220;-79
2021/12/30 05:58:58;;;;;;;14.53;5.20;;;7.80;99.90;;;;;;5032535;28;20243;-80
2021/12/30 06:01:24;;;;;;;12.53;4.17;;;7.80;99.90;;;;;;5030453;28;20241;-80
2021/12/30 06:03:49;;;;;;;12.77;3.80;;;7.80;99.90;;;;;;5049069;28;20694;-80
2021/12/30 06:06:15;;;;;;;16.83;4.50;;;7.80;99.90;;;;;;5049852;28;20189;-79
2021/12/30 06:08:40;;;;;;;12.67;4.03;;;7.80;99.90;;;;;;5031549;28;20186;-80
2021/12/30 06:11:06;;;;;;;16.90;5.43;;;7.70;99.90;;;;;;5048409;28;20502;-80
2021/12/30 06:13:32;;;;;;;13.53;4.03;;;7.80;99.90;;;;;;5047520;28;20206;-79
2021/12/30 06:15:57;;;;;;;13.77;4.03;;;7.70;99.90;;;;;;5030563;28;20573;-81
2021/12/30 06:18:23;;;;;;;9.43;3.87;;;7.60;99.90;;;;;;5030801;28;20599;-80
2021/12/30 06:20:48;;;;;;;11.87;3.93;;;7.60;99.90;;;;;;5030485;28;20670;-78
2021/12/30 06:23:14;;;;;;;16.83;4.00;;;7.60;99.90;;;;;;5030551;28;20561;-79
2021/12/30 06:25:40;;;;;;;12.77;4.30;;;7.60;99.90;;;;;;5030706;28;20266;-80
2021/12/30 06:28:05;;;;;;;10.00;3.93;;;7.60;99.90;;;;;;5031096;28;20190;-81
2021/12/30 06:30:31;;;;;;;10.57;4.07;;;7.60;99.90;;;;;;5030302;28;20573;-80
2021/12/30 06:32:57;;;;;;;10.03;3.80;;;7.60;99.90;;;;;;5048124;28;20210;-78
2021/12/30 06:35:22;;;;;;;10.83;4.20;;;7.60;99.90;;;;;;5048499;28;20210;-81
2021/12/30 06:37:49;;;;;;;14.53;4.20;;;7.50;99.90;;;;;;5047685;28;20710;-81
2021/12/30 06:40:15;;;;;;;23.00;4.60;;;7.50;99.90;;;;;;5031064;28;20213;-80
2021/12/30 06:42:42;;;;;;;18.53;4.70;;;7.50;99.90;;;;;;5030078;28;20277;-81
2021/12/30 06:45:09;;;;;;;16.87;4.90;;;7.50;99.90;;;;;;5030824;28;20300;-78
2021/12/30 06:47:35;;;;;;;15.60;4.90;;;7.50;99.90;;;;;;5030273;28;20186;-79
2021/12/30 06:50:02;;;;;;;20.73;5.07;;;7.50;99.90;;;;;;5029961;28;20196;-82
2021/12/30 06:52:28;;;;;;;16.13;5.90;;;7.40;99.90;;;;;;5047481;28;20213;-79
2021/12/30 06:54:54;;;;;;;12.70;6.00;;;7.50;99.90;;;;;;5030231;28;20252;-79
2021/12/30 06:57:20;;;;;;;14.97;6.30;;;7.40;99.90;;;;;;5029925;28;20186;-79
2021/12/30 06:59:46;;;;;;;13.77;6.00;;;7.40;99.90;;;;;;5029863;28;20209;-81
2021/12/30 07:02:13;;;;;;;18.73;6.20;;;7.40;99.90;;;;;;5047448;28;20672;-81
2021/12/30 07:04:39;;;;;;;17.00;6.73;;;7.30;99.90;;;;;;5047595;28;20210;-79
2021/12/30 07:07:05;;;;;;;15.90;6.60;;;7.30;99.90;;;;;;5047987;28;20644;-79
2021/12/30 07:09:31;;;;;;;15.00;6.90;;;7.20;99.90;;;;;;5029563;28;20192;-78
2021/12/30 07:11:57;;;;;;;14.50;6.73;;;7.20;99.90;;;;;;5030107;28;20218;-80
2021/12/30 07:14:23;;;;;;;17.77;7.43;;;7.30;99.90;;;;;;5047033;28;20228;-79
2021/12/30 07:16:49;;;;;;;18.13;8.17;;;7.40;99.90;;;;;;5030195;28;20287;-77
2021/12/30 07:19:15;;;;;;;16.20;7.10;;;7.40;99.90;;;;;;5029421;28;21231;-80
2021/12/30 07:21:42;;;;;;;16.97;7.90;;;7.60;99.90;;;;;;5046813;28;20280;-80
2021/12/30 07:24:08;;;;;;;16.97;8.27;;;7.60;99.90;;;;;;5029423;28;20241;-78
2021/12/30 07:26:34;;;;;;;17.43;8.40;;;7.70;99.90;;;;;;5029914;28;20217;-81
2021/12/30 07:29:00;;;;;;;15.97;7.67;;;7.70;99.90;;;;;;5028535;28;20284;-82
2021/12/30 07:31:26;;;;;;;16.80;8.97;;;7.70;99.90;;;;;;5028916;28;20210;-80
2021/12/30 07:33:51;;;;;;;15.90;9.60;;;7.70;99.90;;;;;;5042654;28;20271;-80
2021/12/30 07:36:17;;;;;;;21.03;9.43;;;7.80;99.90;;;;;;5026051;28;20178;-80
2021/12/30 07:38:43;;;;;;;18.33;9.43;;;7.90;99.90;;;;;;5025989;28;20674;-78
2021/12/30 07:41:08;;;;;;;21.43;9.87;;;8.00;99.90;;;;;;5025762;28;20587;-81
2021/12/30 07:43:34;;;;;;;23.60;10.13;;;8.00;99.90;;;;;;5026719;28;20214;-79
2021/12/30 07:46:00;;;;;;;17.37;9.10;;;8.00;99.90;;;;;;5022548;28;20215;-79
2021/12/30 07:48:27;;;;;;;21.60;10.00;;;8.00;99.90;;;;;;5043745;28;20189;-78
2021/12/30 07:50:52;;;;;;;18.03;9.67;;;8.00;99.90;;;;;;5025576;28;20856;-79
2021/12/30 07:53:20;;;;;;;20.67;9.27;;;8.00;99.90;;;;;;5026618;28;20308;-79
2021/12/30 07:55:46;;;;;;;15.90;9.23;;;8.00;99.90;;;;;;5045040;28;20200;-79
2021/12/30 07:58:11;;;;;;;20.37;8.90;;;8.10;99.90;;;;;;5028490;28;21191;-81
2021/12/30 08:00:37;;;;;;;23.90;9.57;;;8.20;99.90;;;;;;5025245;28;20190;-80
2021/12/30 08:03:03;;;;;;;18.27;8.37;;;8.30;99.90;;;;;;5024271;28;20273;-79
2021/12/30 08:05:28;;;;;;;19.50;9.00;;;8.30;99.90;;;;;;5027338;28;20182;-79
2021/12/30 08:07:54;;;;;;;20.03;9.70;;;8.40;99.90;;;;;;5029716;28;20193;-78
2021/12/30 08:10:22;;;;;;;16.73;8.43;;;8.40;99.90;;;;;;5046467;28;20941;-78
2021/12/30 08:12:48;;;;;;;20.50;8.17;;;8.40;99.90;;;;;;5046329;28;20220;-80
2021/12/30 08:15:16;;;;;;;16.80;7.90;;;8.50;99.90;;;;;;5043415;28;20264;-79
2021/12/30 08:17:43;;;;;;;19.30;7.53;;;8.70;99.90;;;;;;5027307;28;20281;-79
2021/12/30 08:20:10;;;;;;;17.20;7.00;;;8.70;99.90;;;;;;5024820;28;20195;-79
2021/12/30 08:22:36;;;;;;;14.57;7.60;;;8.80;99.90;;;;;;5042841;28;20234;-81
2021/12/30 08:25:03;;;;;;;13.17;6.20;;;9.00;99.90;;;;;;5044680;28;20242;-80
2021/12/30 08:27:29;;;;;;;11.73;6.57;;;9.10;99.90;;;;;;5045178;28;20190;-78
2021/12/30 08:29:55;;;;;;;18.97;7.07;;;9.10;99.90;;;;;;5027080;28;20868;-77
2021/12/30 08:32:21;;;;;;;18.17;6.90;;;9.20;99.90;;;;;;5043969;28;20217;-77
2021/12/30 08:34:47;;;;;;;15.30;6.37;;;9.30;99.90;;;;;;5040985;28;20206;-77
2021/12/30 08:37:13;;;;;;;13.30;6.13;;;9.30;99.90;;;;;;5040016;28;20633;-79
2021/12/30 08:39:40;;;;;;;13.83;5.23;;;9.30;99.90;;;;;;5022388;28;20190;-75
2021/12/30 08:42:16;;;;;;;14.23;5.57;;;9.40;99.90;;;;;;5025470;28;20201;-79
2021/12/30 08:44:41;;;;;;;13.30;5.33;;;9.50;99.90;;;;;;5044264;28;20301;-79
2021/12/30 08:47:07;;;;;;;13.07;4.60;;;9.50;99.90;;;;;;5027107;28;20277;-79
2021/12/30 08:49:33;;;;;;;12.10;4.77;;;9.50;99.90;;;;;;5042456;28;20205;-78
2021/12/30 08:51:59;;;;;;;9.23;4.53;;;9.50;99.90;;;;;;5043527;28;20218;-80
2021/12/30 08:54:24;;;;;;;11.83;4.60;;;9.60;99.90;;;;;;5025477;28;20217;-80
2021/12/30 08:56:50;;;;;;;11.73;3.97;;;9.50;99.90;;;;;;5043996;28;20186;-80
2021/12/30 08:59:15;;;;;;;8.00;3.60;;;9.60;99.90;;;;;;5045378;28;20572;-80
2021/12/30 09:01:41;;;;;;;10.17;4.00;;;9.70;99.90;;;;;;5027839;28;20220;-79
2021/12/30 09:04:06;;;;;;;10.43;3.57;;;9.70;99.90;;;;;;5026080;28;20257;-78
2021/12/30 09:06:32;;;;;;;8.13;3.43;;;9.70;99.90;;;;;;5044280;28;20194;-77
2021/12/30 09:08:58;;;;;;;6.10;3.47;;;9.70;99.90;;;;;;5043834;28;20273;-81
2021/12/30 09:11:23;;;;;;;6.07;3.00;;;9.80;99.90;;;;;;5025396;28;20610;-80
2021/12/30 09:13:49;;;;;;;6.17;2.80;;;9.90;99.90;;;;;;5025655;28;20214;-78
2021/12/30 09:16:15;;;;;;;6.10;2.60;;;9.90;99.90;;;;;;5044420;28;20559;-79
2021/12/30 09:18:40;;;;;;;6.70;2.83;;;10.00;99.90;;;;;;5027540;28;20287;-82
2021/12/30 09:21:06;;;;;;;3.80;2.20;;;10.20;99.90;;;;;;5023999;28;20743;-80
2021/12/30 09:23:32;;;;;;;6.50;2.37;;;10.30;99.90;;;;;;5027107;28;20216;-76
2021/12/30 09:25:57;;;;;;;3.83;2.20;;;10.30;99.90;;;;;;5025939;28;20182;-82
2021/12/30 09:28:24;;;;;;;9.67;2.73;;;10.40;99.90;;;;;;5043331;28;20345;-81
2021/12/30 09:30:50;;;;;;;6.07;2.33;;;10.30;99.90;;;;;;5042746;28;20208;-78
2021/12/30 09:33:16;;;;;;;7.53;2.77;;;10.40;99.90;;;;;;5025373;28;20209;-78
2021/12/30 09:35:47;;;;;;;3.30;2.20;;;10.30;99.90;;;;;;5026387;28;20550;-79
2021/12/30 09:38:14;;;;;;;4.40;2.17;;;10.40;99.90;;;;;;5025930;28;20281;-80
2021/12/30 09:40:40;;;;;;;4.93;2.17;;;10.40;99.90;;;;;;5026393;28;20193;-79
2021/12/30 09:43:09;;;;;;;4.20;2.60;;;10.40;99.90;;;;;;5025620;28;20649;-81
2021/12/30 09:45:39;;;;;;;4.87;2.33;;;10.50;99.90;;;;;;5019590;28;20186;-78
2021/12/30 09:48:07;;;;;;;5.30;2.07;;;10.50;99.90;;;;;;5042536;28;20724;-78
2021/12/30 09:50:54;;;;;;;3.87;2.10;;;10.60;99.90;;;;;;5024975;28;20186;-78
2021/12/30 09:53:22;;;;;;;4.50;1.87;;;10.70;99.90;;;;;;5024965;28;20374;-78
2021/12/30 09:55:49;;;;;;;5.30;2.37;;;10.60;99.90;;;;;;5024586;28;20178;-78
2021/12/30 09:58:15;;;;;;;4.77;1.63;;;10.60;99.90;;;;;;5025690;28;20547;-80
2021/12/30 10:00:40;;;;;;;3.03;2.07;;;10.70;99.90;;;;;;5042251;28;20178;-84
2021/12/30 10:03:07;;;;;;;3.03;1.70;;;10.70;99.90;;;;;;5023702;28;20229;-78
2021/12/30 10:05:35;;;;;;;2.27;1.77;;;10.80;99.90;;;;;;5025049;28;20225;-78
2021/12/30 10:08:07;;;;;;;2.90;1.83;;;10.80;99.90;;;;;;5024626;28;20595;-79
2021/12/30 10:10:35;;;;;;;2.10;1.67;;;10.90;99.90;;;;;;5042787;28;20466;-80
2021/12/30 10:13:16;;;;;;;3.35;1.58;;;11.00;99.90;;;;;;5006948;28;20293;-80
2021/12/30 10:15:44;;;;;;;2.10;1.40;;;11.00;99.90;;;;;;4966984;28;20188;-78
2021/12/30 10:18:09;;;;;;;3.97;1.60;;;11.10;99.90;;;;;;4974569;28;20227;-80
2021/12/30 10:20:39;;;;;;;2.67;1.50;;;11.20;99.90;;;;;;5002992;28;20197;-81
2021/12/30 10:23:10;;;;;;;5.32;1.63;;;11.20;99.90;;;;;;5005136;28;20646;-79
2021/12/30 10:25:41;;;;;;;1.15;1.05;;;11.10;99.90;;;;;;4995142;28;20191;-79
2021/12/30 10:28:26;;;;;;;4.35;2.20;;;11.10;99.90;;;;;;5011904;28;20362;-81
2021/12/30 10:31:25;;;;;;;2.78;1.50;;;11.10;99.90;;;;;;5005314;28;20261;-76
2021/12/30 10:33:58;;;;;;;2.72;1.35;;;11.10;99.90;;;;;;5003988;28;20211;-77
2021/12/30 10:36:32;;;;;;;4.07;1.50;;;11.10;99.90;;;;;;5004009;28;20183;-80
2021/12/30 10:39:20;;;;;;;2.38;1.30;;;11.20;99.90;;;;;;4996267;28;20787;-79
2021/12/30 10:41:47;;;;;;;2.35;1.40;;;11.20;99.90;;;;;;5003821;28;20204;-79
2021/12/30 10:44:13;;;;;;;3.15;1.20;;;11.20;99.90;;;;;;5003170;28;20213;-78
2021/12/30 10:46:39;;;;;;;2.25;1.30;;;11.30;99.90;;;;;;5004947;28;20184;-77
2021/12/30 10:49:12;;;;;;;3.75;1.38;;;11.20;99.90;;;;;;4996913;28;20222;-79
2021/12/30 10:51:44;;;;;;;3.00;1.15;;;11.20;99.90;;;;;;5002054;28;20183;-80
2021/12/30 10:54:22;;;;;;;1.67;1.10;;;11.20;99.90;;;;;;5004901;28;20768;-82
2021/12/30 10:57:09;;;;;;;2.20;1.40;;;11.20;99.90;;;;;;4999610;28;20808;-80
2021/12/30 10:59:41;;;;;;;1.65;1.00;;;11.10;99.90;;;;;;5006010;28;20183;-80
2021/12/30 11:02:17;;;;;;;2.40;1.20;;;11.20;99.90;;;;;;4996025;28;20183;-78
2021/12/30 11:04:49;;;;;;;1.50;0.80;;;11.10;99.90;;;;;;5006208;28;20210;-81
2021/12/30 11:07:25;;;;;;;1.73;1.00;;;11.10;99.90;;;;;;5004163;28;20194;-80
2021/12/30 11:09:54;;;;;;;0.80;0.80;;;11.30;99.90;;;;;;4994950;28;20264;-79
2021/12/30 11:12:34;;;;;;;3.25;0.80;;;11.30;99.90;;;;;;5003104;28;20206;-79
2021/12/30 11:15:05;;;;;;;0.90;0.75;;;11.40;99.90;;;;;;5005621;28;20685;-78
2021/12/30 11:17:36;;;;;;;0.85;0.70;;;11.40;99.90;;;;;;5007324;28;20167;-79
2021/12/30 11:20:11;;;;;;;1.03;0.80;;;11.40;99.90;;;;;;4995103;28;20917;-79
2021/12/30 11:22:38;;;;;;;0.77;0.70;;;11.50;99.90;;;;;;5006266;28;20251;-78
2021/12/30 11:25:11;;;;;;;0.52;0.52;;;11.50;99.90;;;;;;5007053;28;20587;-79
2021/12/30 11:27:37;;;;;;;0.60;0.60;;;11.50;99.90;;;;;;5005275;28;20188;-79
2021/12/30 11:30:13;;;;;;;0.63;0.63;;;11.60;99.90;;;;;;5004524;28;20265;-79
2021/12/30 11:32:39;;;;;;;0.90;0.50;;;11.60;99.90;;;;;;4997829;28;20277;-80
2021/12/30 11:35:07;;;;;;;0.65;0.60;;;11.50;99.90;;;;;;5004393;28;20207;-79
2021/12/30 11:37:33;;;;;;;1.10;0.70;;;11.50;99.90;;;;;;5006124;28;20187;-78
2021/12/30 11:40:04;;;;;;;1.48;0.60;;;11.50;99.90;;;;;;5003858;28;20198;-79
2021/12/30 11:42:45;;;;;;;0.57;0.57;;;11.50;99.90;;;;;;5005196;28;20946;-80
2021/12/30 11:45:30;;;;;;;0.65;0.65;;;11.50;99.90;;;;;;5005389;28;20671;-80
2021/12/30 11:48:02;;;;;;;1.33;0.60;;;11.40;99.90;;;;;;5003005;28;20175;-80
2021/12/30 11:50:30;;;;;;;0.90;0.55;;;11.40;99.90;;;;;;5004454;28;20226;-79
2021/12/30 11:53:11;;;;;;;0.50;0.50;;;11.50;99.90;;;;;;5002835;28;20203;-79
2021/12/30 11:56:00;;;;;;;0.50;0.40;;;11.40;99.90;;;;;;5002374;28;20218;-79
2021/12/30 11:58:28;;;;;;;1.02;0.60;;;11.40;99.90;;;;;;5004168;28;20286;-79
2021/12/30 12:01:04;;;;;;;0.43;0.43;;;11.30;99.90;;;;;;5003927;28;20258;-79
2021/12/30 12:03:40;;;;;;;0.52;0.40;;;11.40;99.90;;;;;;4996596;28;20268;-79
2021/12/30 12:08:52;;;;;;;1.05;0.90;;;11.40;99.90;;;;;;5005332;28;20183;-80
2021/12/30 12:11:23;;;;;;;0.65;0.60;;;11.50;99.90;;;;;;5005660;28;20703;-78
2021/12/30 12:13:51;;;;;;;1.02;0.60;;;11.50;99.90;;;;;;4996169;28;20639;-79
2021/12/30 12:16:42;;;;;;;0.45;0.45;;;11.50;99.90;;;;;;5004822;28;20203;-78
2021/12/30 12:19:10;;;;;;;1.02;0.68;;;11.50;99.90;;;;;;4980647;28;20187;-79
2021/12/30 12:21:44;;;;;;;0.52;0.52;;;11.40;99.90;;;;;;5002917;28;20191;-79
2021/12/30 12:24:22;;;;;;;1.48;0.57;;;11.30;99.90;;;;;;4999491;28;20677;-79
2021/12/30 12:26:51;;;;;;;0.50;0.50;;;11.40;99.90;;;;;;5011089;28;20179;-79
2021/12/30 12:29:38;;;;;;;1.00;0.55;;;11.50;99.90;;;;;;5009412;28;20195;-79
2021/12/30 12:32:10;;;;;;;0.73;0.70;;;11.50;99.90;;;;;;4997124;28;20215;-79
2021/12/30 12:34:38;;;;;;;0.73;0.70;;;11.60;99.90;;;;;;5010062;28;20196;-79
2021/12/30 12:37:04;;;;;;;0.90;0.90;;;11.60;99.90;;;;;;5009513;28;20191;-79
2021/12/30 12:39:38;;;;;;;1.23;1.00;;;11.70;99.90;;;;;;5009192;28;20203;-79
2021/12/30 12:42:05;;;;;;;1.05;0.90;;;11.70;99.90;;;;;;5010427;28;20210;-78
2021/12/30 12:44:31;;;;;;;0.93;0.90;;;11.60;99.90;;;;;;5010620;28;20211;-79
2021/12/30 12:46:59;;;;;;;1.52;1.30;;;11.60;99.90;;;;;;5010563;28;20176;-79
2021/12/30 12:49:34;;;;;;;1.48;1.25;;;11.70;99.90;;;;;;5008832;28;20278;-79
2021/12/30 12:52:01;;;;;;;2.10;1.42;;;11.70;99.90;;;;;;5000374;28;20194;-79
2021/12/30 12:54:48;;;;;;;2.63;1.30;;;11.70;99.90;;;;;;5016173;28;20642;-78